createdAt,value
2023-07-27T00:00:23.014Z,83.000000
2023-07-27T00:05:23.144Z,83.782609
2023-07-27T00:10:23.036Z,84.000000
2023-07-27T00:15:47.085Z,84.526316
2023-07-27T00:20:22.969Z,85.000000
2023-07-27T00:25:23.369Z,85.450000
2023-07-27T00:30:23.040Z,86.190476
2023-07-27T00:35:23.003Z,86.809524
2023-07-27T00:40:23.014Z,87.000000
2023-07-27T00:45:35.132Z,87.000000
2023-07-27T00:50:23.107Z,86.304348
2023-07-27T00:55:23.060Z,86.523810
2023-07-27T01:00:23.108Z,86.636364
2023-07-27T01:05:23.128Z,86.217391
2023-07-27T01:10:22.889Z,86.000000
2023-07-27T01:15:23.662Z,85.142857
2023-07-27T01:20:23.018Z,85.900000
2023-07-27T01:25:23.078Z,86.500000
2023-07-27T01:30:23.050Z,88.083333
2023-07-27T01:35:23.092Z,88.695652
2023-07-27T01:40:22.895Z,88.045455
2023-07-27T01:45:23.006Z,88.318182
2023-07-27T01:50:22.948Z,85.647059
2023-07-27T01:55:23.194Z,85.000000
2023-07-27T02:00:23.016Z,85.190476
2023-07-27T02:05:22.911Z,85.565217
2023-07-27T02:10:23.011Z,85.944444
2023-07-27T02:15:22.950Z,86.142857
2023-07-27T02:20:23.041Z,87.000000
2023-07-27T02:25:22.982Z,87.000000
2023-07-27T02:30:23.020Z,87.000000
2023-07-27T02:35:23.120Z,87.000000
2023-07-27T02:40:22.947Z,87.000000
2023-07-27T02:45:23.054Z,87.090909
2023-07-27T02:50:23.088Z,87.086957
2023-07-27T02:55:23.113Z,87.050000
2023-07-27T03:00:23.091Z,87.000000
2023-07-27T03:05:22.942Z,87.210526
2023-07-27T03:10:23.021Z,87.000000
2023-07-27T03:15:23.045Z,87.000000
2023-07-27T03:20:23.087Z,87.000000
2023-07-27T03:25:23.413Z,87.000000
2023-07-27T03:30:22.978Z,87.000000
2023-07-27T03:35:22.973Z,86.636364
2023-07-27T03:40:22.960Z,86.166667
2023-07-27T03:45:23.750Z,86.000000
2023-07-27T03:50:34.972Z,85.882353
2023-07-27T03:55:22.969Z,85.800000
2023-07-27T04:00:35.096Z,85.478261
2023-07-27T04:05:22.945Z,85.100000
2023-07-27T04:10:23.042Z,85.000000
2023-07-27T04:15:35.693Z,85.000000
2023-07-27T04:20:22.951Z,85.000000
2023-07-27T04:25:22.991Z,84.863636
2023-07-27T04:30:22.982Z,84.368421
2023-07-27T04:35:22.968Z,83.789474
2023-07-27T04:40:23.064Z,83.066667
2023-07-27T04:45:22.998Z,83.500000
2023-07-27T04:50:23.031Z,85.105263
2023-07-27T04:55:22.910Z,84.666667
2023-07-27T05:00:22.964Z,84.368421
2023-07-27T05:05:22.971Z,84.095238
2023-07-27T05:10:23.045Z,84.000000
2023-07-27T05:15:22.933Z,84.565217
2023-07-27T05:20:23.082Z,84.880000
2023-07-27T05:25:23.010Z,85.150000
2023-07-27T05:30:22.998Z,84.684211
2023-07-27T05:35:22.961Z,84.047619
2023-07-27T05:40:22.973Z,83.588235
2023-07-27T05:45:22.964Z,83.954545
2023-07-27T05:50:22.878Z,84.315789
2023-07-27T05:55:34.943Z,85.272727
2023-07-27T06:00:22.863Z,85.176471
2023-07-27T06:05:22.994Z,85.789474
2023-07-27T06:10:22.970Z,87.823529
2023-07-27T06:15:23.069Z,91.380952
2023-07-27T06:20:23.030Z,92.095238
2023-07-27T06:25:22.840Z,91.600000
2023-07-27T06:30:22.896Z,90.809524
2023-07-27T06:35:22.979Z,92.500000
2023-07-27T06:40:34.840Z,91.368421
2023-07-27T06:45:23.069Z,92.450000
2023-07-27T06:50:22.913Z,93.350000
2023-07-27T06:55:22.896Z,93.818182
2023-07-27T07:00:22.998Z,93.636364
2023-07-27T07:05:23.000Z,93.050000
2023-07-27T07:10:22.906Z,92.555556
2023-07-27T07:15:23.024Z,91.619048
2023-07-27T07:20:23.562Z,91.238095
2023-07-27T07:25:23.036Z,89.954545
2023-07-27T07:30:22.986Z,89.809524
2023-07-27T07:35:22.922Z,89.380952
2023-07-27T07:40:23.019Z,89.421053
2023-07-27T07:45:22.860Z,88.875000
2023-07-27T07:50:34.965Z,87.944444
2023-07-27T07:55:22.946Z,86.578947
2023-07-27T08:00:34.959Z,86.095238
2023-07-27T08:05:22.986Z,86.095238
2023-07-27T08:10:22.950Z,85.260870
2023-07-27T08:15:22.953Z,85.157895
2023-07-27T08:20:22.957Z,86.545455
2023-07-27T08:25:22.944Z,90.850000
2023-07-27T08:30:23.040Z,91.318182
2023-07-27T08:35:22.948Z,91.619048
2023-07-27T08:40:22.857Z,92.684211
2023-07-27T08:45:34.944Z,91.818182
2023-07-27T08:50:35.081Z,91.500000
2023-07-27T08:55:34.963Z,90.650000
2023-07-27T09:00:35.002Z,90.095238
2023-07-27T09:05:35.627Z,89.533333
2023-07-27T09:10:34.956Z,89.611111
2023-07-27T09:15:22.984Z,88.823529
2023-07-27T09:20:46.964Z,88.619048
2023-07-27T09:25:22.923Z,88.636364
2023-07-27T09:30:22.977Z,88.863636
2023-07-27T09:35:34.886Z,88.782609
2023-07-27T09:40:34.930Z,93.636364
2023-07-27T09:45:22.944Z,93.869565
2023-07-27T09:50:22.986Z,93.500000
2023-07-27T09:55:34.934Z,94.062500
2023-07-27T10:00:22.979Z,95.050000
2023-07-27T10:05:22.887Z,94.950000
2023-07-27T10:10:22.917Z,94.809524
2023-07-27T10:15:22.928Z,94.434783
2023-07-27T10:20:35.670Z,95.120000
2023-07-27T10:25:34.996Z,95.000000
2023-07-27T10:30:22.951Z,94.263158
2023-07-27T10:35:22.826Z,94.473684
2023-07-27T10:40:22.813Z,94.000000
2023-07-27T10:45:23.107Z,93.000000
2023-07-27T10:50:22.962Z,92.565217
2023-07-27T10:55:34.888Z,92.562500
2023-07-27T11:00:22.896Z,91.826087
2023-07-27T11:05:23.001Z,91.347826
2023-07-27T11:10:23.595Z,90.818182
2023-07-27T11:15:22.899Z,90.000000
2023-07-27T11:20:22.931Z,89.666667
2023-07-27T11:25:34.961Z,89.636364
2023-07-27T11:30:23.714Z,90.043478
2023-07-27T11:35:23.072Z,90.421053
2023-07-27T11:40:22.841Z,90.380952
2023-07-27T11:45:22.873Z,90.611111
2023-07-27T11:50:22.930Z,89.714286
2023-07-27T11:55:23.149Z,88.647059
2023-07-27T12:00:23.654Z,88.857143
2023-07-27T12:05:22.826Z,88.619048
2023-07-27T12:10:31.417Z,87.565217
2023-07-27T12:15:22.939Z,87.260870
2023-07-27T12:20:55.085Z,87.250000
2023-07-27T12:25:40.068Z,86.473684
2023-07-27T12:30:22.816Z,86.350000
2023-07-27T12:35:26.201Z,86.950000
2023-07-27T12:40:55.643Z,87.047619
2023-07-27T12:45:22.900Z,87.000000
2023-07-27T12:50:23.649Z,86.217391
2023-07-27T12:55:22.850Z,86.300000
2023-07-27T13:00:22.848Z,85.142857
2023-07-27T13:05:22.842Z,85.500000
2023-07-27T13:10:34.987Z,85.761905
2023-07-27T13:15:22.871Z,85.944444
2023-07-27T13:20:23.011Z,86.857143
2023-07-27T13:25:23.464Z,87.260870
2023-07-27T13:30:22.869Z,87.428571
2023-07-27T13:35:22.908Z,86.909091
2023-07-27T13:40:22.844Z,88.150000
2023-07-27T13:45:23.105Z,89.347826
2023-07-27T13:50:22.885Z,89.947368
2023-07-27T13:55:22.868Z,90.476190
2023-07-27T14:00:22.933Z,90.666667
2023-07-27T14:05:22.912Z,90.444444
2023-07-27T14:10:22.886Z,90.421053
2023-07-27T14:15:23.786Z,91.611111
2023-07-27T14:20:22.815Z,91.545455
2023-07-27T14:25:22.777Z,92.882353
2023-07-27T14:30:22.882Z,92.260870
2023-07-27T14:35:25.886Z,91.777778
2023-07-27T14:40:39.578Z,91.684211
2023-07-27T14:45:22.952Z,92.000000
2023-07-27T14:50:39.270Z,92.347826
2023-07-27T14:55:22.826Z,93.956522
2023-07-27T15:00:23.771Z,95.263158
2023-07-27T15:05:27.411Z,96.000000
2023-07-27T15:10:31.168Z,95.850000
2023-07-27T15:15:22.842Z,96.000000
2023-07-27T15:20:22.770Z,96.000000
2023-07-27T15:25:22.867Z,94.400000
2023-07-27T15:30:22.849Z,94.636364
2023-07-27T15:35:22.921Z,94.950000
2023-07-27T15:40:23.034Z,94.818182
2023-07-27T15:45:22.733Z,96.000000
2023-07-27T15:50:22.851Z,96.631579
2023-07-27T15:55:22.795Z,96.772727
2023-07-27T16:00:22.843Z,96.882353
2023-07-27T16:05:22.888Z,96.000000
2023-07-27T16:10:34.880Z,96.000000
2023-07-27T16:15:22.839Z,96.000000
2023-07-27T16:20:22.869Z,96.000000
2023-07-27T16:25:22.910Z,96.000000
2023-07-27T16:30:23.563Z,96.000000
2023-07-27T16:35:22.835Z,96.842105
2023-07-27T16:40:22.886Z,97.190476
2023-07-27T16:45:22.776Z,98.000000
2023-07-27T16:50:35.032Z,98.944444
2023-07-27T16:55:22.769Z,99.000000
2023-07-27T17:00:22.822Z,98.772727
2023-07-27T17:05:22.831Z,98.000000
2023-07-27T17:10:22.913Z,97.500000
2023-07-27T17:15:22.757Z,97.000000
2023-07-27T17:20:22.824Z,97.000000
2023-07-27T17:25:22.821Z,97.000000
2023-07-27T17:30:22.952Z,97.000000
2023-07-27T17:35:34.801Z,96.954545
2023-07-27T17:40:22.973Z,96.000000
2023-07-27T17:45:22.821Z,95.913043
2023-07-27T17:50:22.836Z,96.000000
2023-07-27T17:55:23.334Z,96.000000
2023-07-27T18:00:22.839Z,96.000000
2023-07-27T18:05:22.956Z,96.750000
2023-07-27T18:10:22.763Z,96.578947
2023-07-27T18:15:34.795Z,96.666667
2023-07-27T18:20:34.906Z,96.000000
2023-07-27T18:25:22.800Z,96.722222
2023-07-27T18:30:24.372Z,97.000000
2023-07-27T18:35:22.916Z,97.000000
2023-07-27T18:40:22.779Z,97.190476
2023-07-27T18:45:22.780Z,96.904762
2023-07-27T18:50:49.587Z,95.954545
2023-07-27T18:55:22.769Z,95.043478
2023-07-27T19:00:22.969Z,95.000000
2023-07-27T19:05:23.061Z,95.739130
2023-07-27T19:10:22.855Z,96.000000
2023-07-27T19:15:22.800Z,96.086957
2023-07-27T19:20:22.780Z,96.782609
2023-07-27T19:25:22.901Z,96.842105
2023-07-27T19:30:22.933Z,96.571429
2023-07-27T19:35:23.429Z,96.047619
2023-07-27T19:40:22.799Z,96.000000
2023-07-27T19:45:22.852Z,96.000000
2023-07-27T19:50:22.809Z,96.000000
2023-07-27T19:55:34.919Z,95.954545
2023-07-27T20:00:22.821Z,95.000000
2023-07-27T20:05:22.727Z,95.190476
2023-07-27T20:10:22.766Z,96.000000
2023-07-27T20:15:22.776Z,96.909091
2023-07-27T20:20:22.940Z,97.000000
2023-07-27T20:25:22.849Z,97.000000
2023-07-27T20:30:22.839Z,97.000000
2023-07-27T20:35:22.762Z,97.000000
2023-07-27T20:40:22.840Z,97.000000
2023-07-27T20:45:34.841Z,97.000000
2023-07-27T20:50:22.735Z,97.000000
2023-07-27T20:55:22.879Z,97.000000
2023-07-27T21:00:23.047Z,97.000000
2023-07-27T21:05:22.773Z,97.000000
2023-07-27T21:10:22.763Z,97.000000
2023-07-27T21:15:22.809Z,96.909091
2023-07-27T21:20:22.776Z,96.000000
2023-07-27T21:25:34.818Z,95.052632
2023-07-27T21:30:22.726Z,94.363636
2023-07-27T21:35:22.780Z,93.521739
2023-07-27T21:40:22.771Z,92.478261
2023-07-27T21:45:22.777Z,91.714286
2023-07-27T21:50:22.929Z,91.000000
2023-07-27T21:55:23.057Z,90.409091
2023-07-27T22:00:22.671Z,89.947368
2023-07-27T22:05:23.463Z,89.714286
2023-07-27T22:10:22.815Z,88.666667
2023-07-27T22:15:22.798Z,88.650000
2023-07-27T22:20:34.894Z,89.173913
2023-07-27T22:25:22.780Z,89.809524
2023-07-27T22:30:22.735Z,89.904762
2023-07-27T22:35:22.758Z,90.000000
2023-07-27T22:40:23.487Z,90.000000
2023-07-27T22:45:22.857Z,90.050000
2023-07-27T22:50:46.751Z,90.000000
2023-07-27T22:55:22.797Z,89.954545
2023-07-27T23:00:23.298Z,89.750000
2023-07-27T23:05:22.773Z,90.000000
2023-07-27T23:10:34.987Z,89.312500
2023-07-27T23:15:22.827Z,90.000000
2023-07-27T23:20:22.885Z,89.055556
2023-07-27T23:25:22.861Z,88.652174
2023-07-27T23:30:22.731Z,89.000000
2023-07-27T23:35:22.704Z,90.000000
2023-07-27T23:40:22.820Z,89.863636
2023-07-27T23:45:22.848Z,89.190476
2023-07-27T23:50:22.790Z,89.900000
2023-07-27T23:55:34.791Z,89.954545
